sensor_id;sensor_type;location;lat;lon;timestamp;pressure;altitude;pressure_sealevel;temperature;humidity
3260;BME280;68938;48.150;14.004;2023-07-22T00:01:49;97915.72;;;21.98;58.25
3260;BME280;68938;48.150;14.004;2023-07-22T00:04:16;97913.38;;;21.84;58.90
3260;BME280;68938;48.150;14.004;2023-07-22T00:06:43;97914.44;;;21.81;58.37
3260;BME280;68938;48.150;14.004;2023-07-22T00:09:10;97917.69;;;21.85;58.60
3260;BME280;68938;48.150;14.004;2023-07-22T00:11:38;97925.16;;;21.78;58.00
3260;BME280;68938;48.150;14.004;2023-07-22T00:14:05;97926.59;;;21.82;58.45
3260;BME280;68938;48.150;14.004;2023-07-22T00:16:34;97922.41;;;21.91;57.04
3260;BME280;68938;48.150;14.004;2023-07-22T00:19:01;97915.91;;;21.85;57.39
3260;BME280;68938;48.150;14.004;2023-07-22T00:21:28;97920.75;;;21.90;57.25
3260;BME280;68938;48.150;14.004;2023-07-22T00:23:55;97919.06;;;22.00;56.77
3260;BME280;68938;48.150;14.004;2023-07-22T00:26:26;97938.53;;;21.96;57.29
3260;BME280;68938;48.150;14.004;2023-07-22T00:28:54;97930.34;;;22.00;56.69
3260;BME280;68938;48.150;14.004;2023-07-22T00:31:22;97938.19;;;21.89;57.32
3260;BME280;68938;48.150;14.004;2023-07-22T00:33:50;97934.53;;;21.92;57.09
3260;BME280;68938;48.150;14.004;2023-07-22T00:36:18;97941.41;;;21.93;57.34
3260;BME280;68938;48.150;14.004;2023-07-22T00:38:45;97943.78;;;21.96;56.91
3260;BME280;68938;48.150;14.004;2023-07-22T00:41:13;97943.41;;;21.89;57.30
3260;BME280;68938;48.150;14.004;2023-07-22T00:43:40;97942.25;;;21.82;57.30
3260;BME280;68938;48.150;14.004;2023-07-22T00:46:08;97947.00;;;21.88;57.17
3260;BME280;68938;48.150;14.004;2023-07-22T00:48:36;97944.72;;;21.95;57.32
3260;BME280;68938;48.150;14.004;2023-07-22T00:51:05;97938.50;;;22.07;57.16
3260;BME280;68938;48.150;14.004;2023-07-22T00:53:32;97931.63;;;22.06;56.27
3260;BME280;68938;48.150;14.004;2023-07-22T00:56:00;97932.22;;;22.10;56.44
3260;BME280;68938;48.150;14.004;2023-07-22T00:58:27;97923.91;;;22.05;56.46
3260;BME280;68938;48.150;14.004;2023-07-22T01:00:54;97929.72;;;22.08;56.53
3260;BME280;68938;48.150;14.004;2023-07-22T01:03:26;97932.34;;;22.19;56.46
3260;BME280;68938;48.150;14.004;2023-07-22T01:05:53;97928.63;;;22.22;56.79
3260;BME280;68938;48.150;14.004;2023-07-22T01:08:22;97929.50;;;22.00;56.38
3260;BME280;68938;48.150;14.004;2023-07-22T01:10:49;97932.69;;;22.04;56.42
3260;BME280;68938;48.150;14.004;2023-07-22T01:13:18;97930.81;;;22.06;55.98
3260;BME280;68938;48.150;14.004;2023-07-22T01:15:47;97934.38;;;21.93;55.92
3260;BME280;68938;48.150;14.004;2023-07-22T01:18:14;97936.63;;;21.98;55.78
3260;BME280;68938;48.150;14.004;2023-07-22T01:20:44;97941.38;;;22.04;55.37
3260;BME280;68938;48.150;14.004;2023-07-22T01:23:13;97943.16;;;22.04;55.03
3260;BME280;68938;48.150;14.004;2023-07-22T01:25:41;97931.88;;;22.03;54.94
3260;BME280;68938;48.150;14.004;2023-07-22T01:28:10;97934.75;;;21.77;54.16
3260;BME280;68938;48.150;14.004;2023-07-22T01:30:37;97932.16;;;21.89;54.15
3260;BME280;68938;48.150;14.004;2023-07-22T01:33:04;97937.97;;;21.92;54.13
3260;BME280;68938;48.150;14.004;2023-07-22T01:35:35;97939.75;;;21.92;54.31
3260;BME280;68938;48.150;14.004;2023-07-22T01:38:03;97936.16;;;21.93;54.08
3260;BME280;68938;48.150;14.004;2023-07-22T01:40:32;97946.03;;;21.89;53.78
3260;BME280;68938;48.150;14.004;2023-07-22T01:42:59;97953.97;;;21.88;53.61
3260;BME280;68938;48.150;14.004;2023-07-22T01:45:27;97947.94;;;21.87;54.37
3260;BME280;68938;48.150;14.004;2023-07-22T01:47:54;97953.16;;;21.87;54.40
3260;BME280;68938;48.150;14.004;2023-07-22T01:50:22;97955.41;;;21.81;54.42
3260;BME280;68938;48.150;14.004;2023-07-22T01:52:52;97945.34;;;21.76;54.84
3260;BME280;68938;48.150;14.004;2023-07-22T01:55:19;97961.47;;;21.70;54.81
3260;BME280;68938;48.150;14.004;2023-07-22T01:57:46;97963.50;;;21.66;54.72
3260;BME280;68938;48.150;14.004;2023-07-22T02:00:14;97961.84;;;21.65;54.45
3260;BME280;68938;48.150;14.004;2023-07-22T02:02:42;97961.84;;;21.65;55.46
3260;BME280;68938;48.150;14.004;2023-07-22T02:05:09;97973.34;;;21.63;55.29
3260;BME280;68938;48.150;14.004;2023-07-22T02:07:38;97979.03;;;21.57;54.88
3260;BME280;68938;48.150;14.004;2023-07-22T02:10:07;97976.66;;;21.53;54.81
3260;BME280;68938;48.150;14.004;2023-07-22T02:12:35;97978.00;;;21.48;55.47
3260;BME280;68938;48.150;14.004;2023-07-22T02:15:02;97985.91;;;21.46;55.37
3260;BME280;68938;48.150;14.004;2023-07-22T02:17:30;97983.31;;;21.46;55.19
3260;BME280;68938;48.150;14.004;2023-07-22T02:19:59;97984.63;;;21.41;55.23
3260;BME280;68938;48.150;14.004;2023-07-22T02:22:27;97988.31;;;21.38;55.18
3260;BME280;68938;48.150;14.004;2023-07-22T02:24:56;97985.91;;;21.35;54.76
3260;BME280;68938;48.150;14.004;2023-07-22T02:27:25;97981.66;;;21.34;55.20
3260;BME280;68938;48.150;14.004;2023-07-22T02:29:54;97982.69;;;21.32;56.11
3260;BME280;68938;48.150;14.004;2023-07-22T02:32:22;97991.34;;;21.32;55.54
3260;BME280;68938;48.150;14.004;2023-07-22T02:34:50;97999.28;;;21.30;55.59
3260;BME280;68938;48.150;14.004;2023-07-22T02:37:17;97995.84;;;21.30;55.89
3260;BME280;68938;48.150;14.004;2023-07-22T02:39:45;97990.16;;;21.25;56.43
3260;BME280;68938;48.150;14.004;2023-07-22T02:42:13;98002.38;;;21.24;56.03
3260;BME280;68938;48.150;14.004;2023-07-22T02:44:41;98006.97;;;21.21;56.52
3260;BME280;68938;48.150;14.004;2023-07-22T02:47:08;98001.16;;;21.17;55.89
3260;BME280;68938;48.150;14.004;2023-07-22T02:49:35;98010.19;;;21.13;55.88
3260;BME280;68938;48.150;14.004;2023-07-22T02:52:04;98010.72;;;21.05;56.55
3260;BME280;68938;48.150;14.004;2023-07-22T02:54:32;98017.84;;;21.03;56.55
3260;BME280;68938;48.150;14.004;2023-07-22T02:57:06;98017.13;;;21.01;56.41
3260;BME280;68938;48.150;14.004;2023-07-22T02:59:33;98020.78;;;20.99;56.78
3260;BME280;68938;48.150;14.004;2023-07-22T03:02:01;98018.44;;;20.96;57.05
3260;BME280;68938;48.150;14.004;2023-07-22T03:04:28;98017.94;;;20.91;57.37
3260;BME280;68938;48.150;14.004;2023-07-22T03:06:56;98026.91;;;20.87;57.32
3260;BME280;68938;48.150;14.004;2023-07-22T03:09:25;98023.81;;;20.81;57.66
3260;BME280;68938;48.150;14.004;2023-07-22T03:11:56;98028.31;;;20.79;57.86
3260;BME280;68938;48.150;14.004;2023-07-22T03:14:24;98026.16;;;20.73;57.88
3260;BME280;68938;48.150;14.004;2023-07-22T03:16:51;98024.59;;;20.71;58.51
3260;BME280;68938;48.150;14.004;2023-07-22T03:19:18;98029.31;;;20.66;58.63
3260;BME280;68938;48.150;14.004;2023-07-22T03:21:46;98031.19;;;20.64;58.88
3260;BME280;68938;48.150;14.004;2023-07-22T03:24:13;98028.00;;;20.60;58.17
3260;BME280;68938;48.150;14.004;2023-07-22T03:26:42;98034.16;;;20.59;58.78
3260;BME280;68938;48.150;14.004;2023-07-22T03:29:12;98032.59;;;20.56;58.83
3260;BME280;68938;48.150;14.004;2023-07-22T03:31:39;98036.25;;;20.54;59.18
3260;BME280;68938;48.150;14.004;2023-07-22T03:34:09;98039.06;;;20.51;59.03
3260;BME280;68938;48.150;14.004;2023-07-22T03:36:37;98040.00;;;20.50;59.25
3260;BME280;68938;48.150;14.004;2023-07-22T03:39:04;98044.38;;;20.49;59.27
3260;BME280;68938;48.150;14.004;2023-07-22T03:41:32;98045.31;;;20.48;59.26
3260;BME280;68938;48.150;14.004;2023-07-22T03:43:59;98044.59;;;20.46;59.22
3260;BME280;68938;48.150;14.004;2023-07-22T03:46:28;98047.31;;;20.45;59.28
3260;BME280;68938;48.150;14.004;2023-07-22T03:48:58;98054.53;;;20.41;60.09
3260;BME280;68938;48.150;14.004;2023-07-22T03:51:25;98052.97;;;20.39;59.89
3260;BME280;68938;48.150;14.004;2023-07-22T03:53:52;98049.31;;;20.41;59.48
3260;BME280;68938;48.150;14.004;2023-07-22T03:56:20;98059.81;;;20.40;60.12
3260;BME280;68938;48.150;14.004;2023-07-22T03:58:51;98059.75;;;20.41;60.25
3260;BME280;68938;48.150;14.004;2023-07-22T04:01:19;98063.25;;;20.40;60.34
3260;BME280;68938;48.150;14.004;2023-07-22T04:03:46;98064.34;;;20.38;60.30
3260;BME280;68938;48.150;14.004;2023-07-22T04:06:13;98056.53;;;20.38;60.22
3260;BME280;68938;48.150;14.004;2023-07-22T04:08:40;98057.44;;;20.36;61.07
3260;BME280;68938;48.150;14.004;2023-07-22T04:11:09;98068.91;;;20.34;59.89
3260;BME280;68938;48.150;14.004;2023-07-22T04:13:38;98067.38;;;20.31;60.20
3260;BME280;68938;48.150;14.004;2023-07-22T04:16:05;98067.88;;;20.24;60.58
3260;BME280;68938;48.150;14.004;2023-07-22T04:18:33;98056.63;;;20.23;60.42
3260;BME280;68938;48.150;14.004;2023-07-22T04:21:02;98067.78;;;20.25;60.39
3260;BME280;68938;48.150;14.004;2023-07-22T04:23:30;98079.78;;;20.28;60.57
3260;BME280;68938;48.150;14.004;2023-07-22T04:25:57;98082.69;;;20.23;61.25
3260;BME280;68938;48.150;14.004;2023-07-22T04:28:24;98092.19;;;20.11;61.77
3260;BME280;68938;48.150;14.004;2023-07-22T04:30:56;98079.06;;;20.13;61.80
3260;BME280;68938;48.150;14.004;2023-07-22T04:33:26;98084.19;;;20.15;61.67
3260;BME280;68938;48.150;14.004;2023-07-22T04:35:57;98082.19;;;20.18;61.95
3260;BME280;68938;48.150;14.004;2023-07-22T04:38:25;98086.56;;;20.18;62.66
3260;BME280;68938;48.150;14.004;2023-07-22T04:40:52;98095.84;;;20.22;62.64
3260;BME280;68938;48.150;14.004;2023-07-22T04:43:22;98093.72;;;20.27;61.97
3260;BME280;68938;48.150;14.004;2023-07-22T04:45:49;98089.25;;;20.29;62.42
3260;BME280;68938;48.150;14.004;2023-07-22T04:48:21;98092.50;;;20.20;62.51
3260;BME280;68938;48.150;14.004;2023-07-22T04:50:48;98093.63;;;20.28;62.29
3260;BME280;68938;48.150;14.004;2023-07-22T04:53:16;98092.34;;;20.34;62.67
3260;BME280;68938;48.150;14.004;2023-07-22T04:55:44;98095.16;;;20.44;61.90
3260;BME280;68938;48.150;14.004;2023-07-22T04:58:14;98089.63;;;20.48;62.64
3260;BME280;68938;48.150;14.004;2023-07-22T05:00:41;98090.16;;;20.53;62.13
3260;BME280;68938;48.150;14.004;2023-07-22T05:03:08;98095.53;;;20.63;61.96
3260;BME280;68938;48.150;14.004;2023-07-22T05:05:36;98094.75;;;20.74;62.44
3260;BME280;68938;48.150;14.004;2023-07-22T05:08:03;98087.94;;;20.84;63.01
3260;BME280;68938;48.150;14.004;2023-07-22T05:10:30;98094.50;;;20.90;62.43
3260;BME280;68938;48.150;14.004;2023-07-22T05:12:59;98082.69;;;20.97;61.83
3260;BME280;68938;48.150;14.004;2023-07-22T05:15:26;98081.94;;;20.95;60.67
3260;BME280;68938;48.150;14.004;2023-07-22T05:17:54;98081.75;;;21.09;61.38
3260;BME280;68938;48.150;14.004;2023-07-22T05:20:23;98081.81;;;21.20;61.12
3260;BME280;68938;48.150;14.004;2023-07-22T05:22:51;98091.31;;;21.33;60.94
3260;BME280;68938;48.150;14.004;2023-07-22T05:25:18;98089.63;;;21.44;59.82
3260;BME280;68938;48.150;14.004;2023-07-22T05:27:48;98082.03;;;21.52;60.21
3260;BME280;68938;48.150;14.004;2023-07-22T05:30:19;98084.06;;;21.60;59.62
3260;BME280;68938;48.150;14.004;2023-07-22T05:33:01;98090.84;;;21.63;59.56
3260;BME280;68938;48.150;14.004;2023-07-22T05:35:29;98085.16;;;21.69;59.25
3260;BME280;68938;48.150;14.004;2023-07-22T05:37:56;98091.69;;;21.74;59.62
3260;BME280;68938;48.150;14.004;2023-07-22T05:40:23;98091.19;;;21.69;59.73
3260;BME280;68938;48.150;14.004;2023-07-22T05:42:52;98085.13;;;21.58;59.22
3260;BME280;68938;48.150;14.004;2023-07-22T05:45:20;98079.09;;;21.80;58.21
3260;BME280;68938;48.150;14.004;2023-07-22T05:47:47;98080.56;;;21.95;57.37
3260;BME280;68938;48.150;14.004;2023-07-22T05:50:15;98080.56;;;21.95;56.37
3260;BME280;68938;48.150;14.004;2023-07-22T05:52:42;98081.13;;;21.98;56.63
3260;BME280;68938;48.150;14.004;2023-07-22T05:55:09;98073.78;;;22.15;55.99
3260;BME280;68938;48.150;14.004;2023-07-22T05:57:36;98077.00;;;22.30;55.77
3260;BME280;68938;48.150;14.004;2023-07-22T06:00:04;98068.19;;;22.31;54.84
3260;BME280;68938;48.150;14.004;2023-07-22T06:02:35;98074.50;;;22.39;53.63
3260;BME280;68938;48.150;14.004;2023-07-22T06:05:03;98063.53;;;22.45;53.77
3260;BME280;68938;48.150;14.004;2023-07-22T06:07:31;98077.91;;;22.51;53.94
3260;BME280;68938;48.150;14.004;2023-07-22T06:09:59;98070.19;;;22.38;52.30
3260;BME280;68938;48.150;14.004;2023-07-22T06:12:26;98073.00;;;22.58;52.46
3260;BME280;68938;48.150;14.004;2023-07-22T06:14:55;98072.72;;;22.72;52.29
3260;BME280;68938;48.150;14.004;2023-07-22T06:17:23;98087.78;;;22.91;52.21
3260;BME280;68938;48.150;14.004;2023-07-22T06:19:51;98078.00;;;23.04;51.65
3260;BME280;68938;48.150;14.004;2023-07-22T06:22:18;98073.66;;;23.14;52.34
3260;BME280;68938;48.150;14.004;2023-07-22T06:24:48;98071.94;;;23.25;51.97
3260;BME280;68938;48.150;14.004;2023-07-22T06:27:18;98077.16;;;23.25;51.57
3260;BME280;68938;48.150;14.004;2023-07-22T06:29:47;98071.56;;;23.29;52.24
3260;BME280;68938;48.150;14.004;2023-07-22T06:32:15;98074.94;;;23.41;51.13
3260;BME280;68938;48.150;14.004;2023-07-22T06:34:43;98069.91;;;23.49;50.71
3260;BME280;68938;48.150;14.004;2023-07-22T06:37:10;98075.72;;;23.53;50.33
3260;BME280;68938;48.150;14.004;2023-07-22T06:39:37;98074.50;;;23.57;50.05
3260;BME280;68938;48.150;14.004;2023-07-22T06:42:07;98072.88;;;23.65;50.52
3260;BME280;68938;48.150;14.004;2023-07-22T06:44:34;98063.72;;;23.71;49.39
3260;BME280;68938;48.150;14.004;2023-07-22T06:47:01;98068.44;;;23.77;49.49
3260;BME280;68938;48.150;14.004;2023-07-22T06:49:29;98072.91;;;23.86;49.03
3260;BME280;68938;48.150;14.004;2023-07-22T06:51:56;98080.78;;;23.96;48.78
3260;BME280;68938;48.150;14.004;2023-07-22T06:54:26;98083.38;;;23.96;48.77
3260;BME280;68938;48.150;14.004;2023-07-22T06:56:53;98091.97;;;23.98;49.04
3260;BME280;68938;48.150;14.004;2023-07-22T06:59:21;98080.91;;;23.95;49.53
3260;BME280;68938;48.150;14.004;2023-07-22T07:01:48;98087.16;;;24.03;50.55
3260;BME280;68938;48.150;14.004;2023-07-22T07:04:18;98089.69;;;24.15;49.50
3260;BME280;68938;48.150;14.004;2023-07-22T07:06:45;98086.44;;;24.32;49.26
3260;BME280;68938;48.150;14.004;2023-07-22T07:09:12;98084.16;;;24.48;48.88
3260;BME280;68938;48.150;14.004;2023-07-22T07:11:39;98080.88;;;24.66;49.60
3260;BME280;68938;48.150;14.004;2023-07-22T07:14:07;98088.03;;;24.54;47.74
3260;BME280;68938;48.150;14.004;2023-07-22T07:16:35;98080.69;;;24.48;47.98
3260;BME280;68938;48.150;14.004;2023-07-22T07:19:02;98088.03;;;24.64;47.62
3260;BME280;68938;48.150;14.004;2023-07-22T07:21:29;98093.88;;;24.77;48.55
3260;BME280;68938;48.150;14.004;2023-07-22T07:23:57;98095.66;;;24.67;46.66
3260;BME280;68938;48.150;14.004;2023-07-22T07:26:25;98095.22;;;24.71;47.71
3260;BME280;68938;48.150;14.004;2023-07-22T07:28:53;98097.75;;;24.82;47.63
3260;BME280;68938;48.150;14.004;2023-07-22T07:31:20;98104.50;;;24.85;46.47
3260;BME280;68938;48.150;14.004;2023-07-22T07:33:48;98107.84;;;25.06;45.58
3260;BME280;68938;48.150;14.004;2023-07-22T07:36:15;98110.47;;;25.06;46.18
3260;BME280;68938;48.150;14.004;2023-07-22T07:38:44;98104.53;;;25.04;44.07
3260;BME280;68938;48.150;14.004;2023-07-22T07:41:11;98104.13;;;25.19;44.78
3260;BME280;68938;48.150;14.004;2023-07-22T07:43:39;98108.00;;;25.24;43.66
3260;BME280;68938;48.150;14.004;2023-07-22T07:46:22;98105.38;;;25.15;43.09
3260;BME280;68938;48.150;14.004;2023-07-22T07:48:58;98107.84;;;25.06;44.18
3260;BME280;68938;48.150;14.004;2023-07-22T07:51:27;98102.06;;;25.22;45.55
3260;BME280;68938;48.150;14.004;2023-07-22T07:53:57;98102.16;;;25.01;43.34
3260;BME280;68938;48.150;14.004;2023-07-22T07:56:25;98087.78;;;25.05;43.79
3260;BME280;68938;48.150;14.004;2023-07-22T07:58:54;98082.00;;;25.41;43.17
3260;BME280;68938;48.150;14.004;2023-07-22T08:01:22;98088.16;;;25.69;45.11
3260;BME280;68938;48.150;14.004;2023-07-22T08:03:49;98084.56;;;25.80;42.59
3260;BME280;68938;48.150;14.004;2023-07-22T08:06:16;98084.00;;;25.86;42.43
3260;BME280;68938;48.150;14.004;2023-07-22T08:08:46;98089.28;;;26.13;43.66
3260;BME280;68938;48.150;14.004;2023-07-22T08:11:14;98095.66;;;26.38;42.93
3260;BME280;68938;48.150;14.004;2023-07-22T08:13:44;98099.63;;;26.52;41.80
3260;BME280;68938;48.150;14.004;2023-07-22T08:16:14;98099.22;;;26.75;41.85
3260;BME280;68938;48.150;14.004;2023-07-22T08:18:44;98101.09;;;27.00;41.78
3260;BME280;68938;48.150;14.004;2023-07-22T08:21:11;98094.72;;;27.21;39.97
3260;BME280;68938;48.150;14.004;2023-07-22T08:23:40;98098.31;;;27.37;40.00
3260;BME280;68938;48.150;14.004;2023-07-22T08:26:07;98094.44;;;27.24;39.87
3260;BME280;68938;48.150;14.004;2023-07-22T08:28:34;98095.25;;;27.06;38.49
3260;BME280;68938;48.150;14.004;2023-07-22T08:31:02;98098.53;;;26.90;38.47
3260;BME280;68938;48.150;14.004;2023-07-22T08:33:30;98093.13;;;27.10;38.99
3260;BME280;68938;48.150;14.004;2023-07-22T08:36:02;98096.28;;;27.31;40.19
3260;BME280;68938;48.150;14.004;2023-07-22T08:38:29;98087.13;;;27.17;37.06
3260;BME280;68938;48.150;14.004;2023-07-22T08:40:57;98091.72;;;27.33;38.17
3260;BME280;68938;48.150;14.004;2023-07-22T08:43:27;98086.97;;;27.63;37.66
3260;BME280;68938;48.150;14.004;2023-07-22T08:45:59;98088.28;;;27.41;36.75
3260;BME280;68938;48.150;14.004;2023-07-22T08:48:30;98092.88;;;27.57;36.95
3260;BME280;68938;48.150;14.004;2023-07-22T08:51:07;98085.31;;;27.62;36.94
3260;BME280;68938;48.150;14.004;2023-07-22T08:53:38;98090.59;;;27.62;37.77
3260;BME280;68938;48.150;14.004;2023-07-22T08:56:06;98088.66;;;27.72;37.32
3260;BME280;68938;48.150;14.004;2023-07-22T08:58:35;98090.59;;;27.36;36.66
3260;BME280;68938;48.150;14.004;2023-07-22T09:01:02;98086.69;;;27.22;36.00
3260;BME280;68938;48.150;14.004;2023-07-22T09:03:30;98087.66;;;27.39;37.36
3260;BME280;68938;48.150;14.004;2023-07-22T09:05:59;98094.72;;;26.67;38.26
3260;BME280;68938;48.150;14.004;2023-07-22T09:08:27;98092.56;;;27.16;37.43
3260;BME280;68938;48.150;14.004;2023-07-22T09:10:55;98096.25;;;27.23;36.88
3260;BME280;68938;48.150;14.004;2023-07-22T09:13:26;98093.25;;;27.18;39.12
3260;BME280;68938;48.150;14.004;2023-07-22T09:15:57;98092.66;;;27.50;39.34
3260;BME280;68938;48.150;14.004;2023-07-22T09:18:27;98087.25;;;27.34;36.93
3260;BME280;68938;48.150;14.004;2023-07-22T09:20:55;98080.75;;;27.72;36.72
3260;BME280;68938;48.150;14.004;2023-07-22T09:23:35;98086.13;;;27.80;36.46
3260;BME280;68938;48.150;14.004;2023-07-22T09:26:14;98078.97;;;27.99;35.72
3260;BME280;68938;48.150;14.004;2023-07-22T09:28:56;98079.13;;;27.97;37.21
3260;BME280;68938;48.150;14.004;2023-07-22T09:31:25;98073.81;;;27.89;36.86
3260;BME280;68938;48.150;14.004;2023-07-22T09:33:54;98072.03;;;27.72;36.21
3260;BME280;68938;48.150;14.004;2023-07-22T09:36:21;98075.13;;;27.41;37.18
3260;BME280;68938;48.150;14.004;2023-07-22T09:39:02;98068.41;;;27.47;36.71
3260;BME280;68938;48.150;14.004;2023-07-22T09:41:31;98067.22;;;27.67;36.94
3260;BME280;68938;48.150;14.004;2023-07-22T09:44:09;98068.72;;;27.96;35.77
3260;BME280;68938;48.150;14.004;2023-07-22T09:46:38;98065.41;;;28.28;37.72
3260;BME280;68938;48.150;14.004;2023-07-22T09:49:08;98066.47;;;28.01;35.74
3260;BME280;68938;48.150;14.004;2023-07-22T09:51:39;98060.69;;;27.97;36.19
3260;BME280;68938;48.150;14.004;2023-07-22T09:54:26;98063.72;;;28.19;36.07
3260;BME280;68938;48.150;14.004;2023-07-22T09:56:53;98052.78;;;28.05;36.49
3260;BME280;68938;48.150;14.004;2023-07-22T09:59:21;98058.56;;;28.09;36.93
3260;BME280;68938;48.150;14.004;2023-07-22T10:01:50;98055.19;;;27.91;34.39
3260;BME280;68938;48.150;14.004;2023-07-22T10:04:21;98061.28;;;27.83;34.32
3260;BME280;68938;48.150;14.004;2023-07-22T10:06:50;98054.41;;;27.98;35.06
3260;BME280;68938;48.150;14.004;2023-07-22T10:09:18;98049.94;;;27.91;34.90
3260;BME280;68938;48.150;14.004;2023-07-22T10:11:47;98046.81;;;27.95;34.54
3260;BME280;68938;48.150;14.004;2023-07-22T10:14:15;98041.31;;;28.23;34.24
3260;BME280;68938;48.150;14.004;2023-07-22T10:16:45;98038.22;;;28.35;34.05
3260;BME280;68938;48.150;14.004;2023-07-22T10:19:12;98038.44;;;28.42;33.83
3260;BME280;68938;48.150;14.004;2023-07-22T10:21:40;98036.78;;;28.49;33.22
3260;BME280;68938;48.150;14.004;2023-07-22T10:24:07;98023.63;;;28.66;32.97
3260;BME280;68938;48.150;14.004;2023-07-22T10:26:36;98024.63;;;28.81;33.47
3260;BME280;68938;48.150;14.004;2023-07-22T10:29:13;98031.41;;;28.75;33.24
3260;BME280;68938;48.150;14.004;2023-07-22T10:31:41;98016.38;;;28.84;34.49
3260;BME280;68938;48.150;14.004;2023-07-22T10:34:08;98020.84;;;28.75;33.52
3260;BME280;68938;48.150;14.004;2023-07-22T10:36:35;98022.97;;;28.64;34.34
3260;BME280;68938;48.150;14.004;2023-07-22T10:39:03;98032.94;;;28.27;33.95
3260;BME280;68938;48.150;14.004;2023-07-22T10:41:32;98027.75;;;28.52;34.06
3260;BME280;68938;48.150;14.004;2023-07-22T10:44:01;98029.69;;;28.50;33.58
3260;BME280;68938;48.150;14.004;2023-07-22T10:46:36;98029.69;;;28.50;32.76
3260;BME280;68938;48.150;14.004;2023-07-22T10:49:11;98021.47;;;28.45;32.87
3260;BME280;68938;48.150;14.004;2023-07-22T10:51:39;98022.38;;;28.27;33.65
3260;BME280;68938;48.150;14.004;2023-07-22T10:54:14;98018.06;;;28.18;33.68
3260;BME280;68938;48.150;14.004;2023-07-22T10:56:43;98021.06;;;27.89;34.44
3260;BME280;68938;48.150;14.004;2023-07-22T10:59:12;98027.00;;;27.83;34.98
3260;BME280;68938;48.150;14.004;2023-07-22T11:01:41;98014.25;;;27.78;35.00
3260;BME280;68938;48.150;14.004;2023-07-22T11:12:15;97991.44;;;28.54;35.94
3260;BME280;68938;48.150;14.004;2023-07-22T11:17:28;97988.34;;;29.08;33.13
3260;BME280;68938;48.150;14.004;2023-07-22T11:19:57;97982.38;;;29.14;32.50
3260;BME280;68938;48.150;14.004;2023-07-22T11:22:27;97980.44;;;28.99;32.27
3260;BME280;68938;48.150;14.004;2023-07-22T11:24:54;97984.22;;;29.13;32.27
3260;BME280;68938;48.150;14.004;2023-07-22T11:27:22;97975.59;;;29.19;34.27
3260;BME280;68938;48.150;14.004;2023-07-22T11:29:49;97983.03;;;29.16;32.73
3260;BME280;68938;48.150;14.004;2023-07-22T11:32:18;97977.94;;;28.90;31.91
3260;BME280;68938;48.150;14.004;2023-07-22T11:34:46;97966.38;;;28.91;32.55
3260;BME280;68938;48.150;14.004;2023-07-22T11:37:13;97970.50;;;28.93;31.58
3260;BME280;68938;48.150;14.004;2023-07-22T11:39:40;97962.59;;;29.10;32.84
3260;BME280;68938;48.150;14.004;2023-07-22T11:42:08;97963.88;;;29.30;34.71
3260;BME280;68938;48.150;14.004;2023-07-22T11:44:35;97966.97;;;29.42;33.23
3260;BME280;68938;48.150;14.004;2023-07-22T11:47:05;97966.34;;;28.99;32.63
3260;BME280;68938;48.150;14.004;2023-07-22T11:52:08;97976.78;;;29.00;33.70
3260;BME280;68938;48.150;14.004;2023-07-22T11:54:46;97976.72;;;29.33;33.23
3260;BME280;68938;48.150;14.004;2023-07-22T11:57:14;97972.22;;;29.50;32.09
3260;BME280;68938;48.150;14.004;2023-07-22T11:59:45;97972.03;;;29.68;31.07
3260;BME280;68938;48.150;14.004;2023-07-22T12:05:03;97969.78;;;29.88;33.57
3260;BME280;68938;48.150;14.004;2023-07-22T12:07:34;97970.84;;;29.79;32.56
3260;BME280;68938;48.150;14.004;2023-07-22T12:10:04;97967.13;;;29.96;33.04
3260;BME280;68938;48.150;14.004;2023-07-22T12:12:37;97963.06;;;30.08;31.76
3260;BME280;68938;48.150;14.004;2023-07-22T12:15:20;97962.38;;;30.23;31.25
3260;BME280;68938;48.150;14.004;2023-07-22T12:20:17;97959.00;;;29.97;30.53
3260;BME280;68938;48.150;14.004;2023-07-22T12:22:45;97951.66;;;30.08;31.95
3260;BME280;68938;48.150;14.004;2023-07-22T12:25:14;97956.63;;;30.19;31.88
3260;BME280;68938;48.150;14.004;2023-07-22T12:27:43;97952.78;;;30.21;30.11
3260;BME280;68938;48.150;14.004;2023-07-22T12:30:13;97947.84;;;30.10;29.95
3260;BME280;68938;48.150;14.004;2023-07-22T12:32:43;97949.34;;;30.13;32.16
3260;BME280;68938;48.150;14.004;2023-07-22T12:35:11;97943.78;;;29.99;30.81
3260;BME280;68938;48.150;14.004;2023-07-22T12:37:41;97947.03;;;29.79;31.13
3260;BME280;68938;48.150;14.004;2023-07-22T12:40:09;97943.44;;;29.63;31.62
3260;BME280;68938;48.150;14.004;2023-07-22T12:42:38;97946.41;;;29.68;33.09
3260;BME280;68938;48.150;14.004;2023-07-22T12:45:06;97934.31;;;29.74;30.11
3260;BME280;68938;48.150;14.004;2023-07-22T12:47:35;97924.94;;;29.63;30.53
3260;BME280;68938;48.150;14.004;2023-07-22T12:50:02;97926.91;;;29.69;32.49
3260;BME280;68938;48.150;14.004;2023-07-22T12:52:30;97920.50;;;29.56;31.24
3260;BME280;68938;48.150;14.004;2023-07-22T12:54:57;97910.28;;;29.61;31.36
3260;BME280;68938;48.150;14.004;2023-07-22T12:57:25;97918.28;;;29.28;32.06
3260;BME280;68938;48.150;14.004;2023-07-22T12:59:52;97914.97;;;29.34;32.46
3260;BME280;68938;48.150;14.004;2023-07-22T13:02:19;97922.50;;;29.45;30.85
3260;BME280;68938;48.150;14.004;2023-07-22T13:04:47;97918.84;;;29.55;33.31
3260;BME280;68938;48.150;14.004;2023-07-22T13:07:14;97925.97;;;29.46;31.85
3260;BME280;68938;48.150;14.004;2023-07-22T13:09:42;97924.97;;;29.55;31.54
3260;BME280;68938;48.150;14.004;2023-07-22T13:12:09;97911.56;;;29.57;31.40
3260;BME280;68938;48.150;14.004;2023-07-22T13:14:37;97913.75;;;29.61;32.32
3260;BME280;68938;48.150;14.004;2023-07-22T13:17:06;97909.69;;;29.73;32.78
3260;BME280;68938;48.150;14.004;2023-07-22T13:19:34;97909.00;;;29.80;32.77
3260;BME280;68938;48.150;14.004;2023-07-22T13:22:01;97905.69;;;29.78;31.95
3260;BME280;68938;48.150;14.004;2023-07-22T13:24:28;97898.81;;;29.99;32.64
3260;BME280;68938;48.150;14.004;2023-07-22T13:26:56;97892.09;;;30.20;31.77